Time;durP1;ratioP1;P1;durP2;ratioP2;P2;SDS_P1;SDS_P2;PMS_P1;PMS_P2;Temp;Humidity;BMP_temperature;BMP_pressure;BME280_temperature;BME280_humidity;BME280_pressure;Samples;Min_cycle;Max_cycle;Signal;HPM_P1;HPM_P2
2022/01/15 00:02:14;;;;;;;1.70;0.90;;;18.60;45.40;;;;;;5033432;28;20209;-60
2022/01/15 00:04:40;;;;;;;1.40;0.83;;;18.60;45.50;;;;;;5034129;28;20174;-64
2022/01/15 00:07:06;;;;;;;1.63;1.00;;;18.60;45.70;;;;;;5033906;28;20519;-66
2022/01/15 00:09:31;;;;;;;1.87;0.80;;;18.60;46.00;;;;;;5033988;28;20636;-66
2022/01/15 00:11:58;;;;;;;1.37;0.83;;;18.60;45.40;;;;;;5033433;28;20216;-64
2022/01/15 00:14:32;;;;;;;1.30;0.90;;;18.70;45.90;;;;;;5033067;28;20177;-62
2022/01/15 00:17:14;;;;;;;1.80;1.00;;;18.60;46.00;;;;;;5033816;28;20404;-63
2022/01/15 00:19:41;;;;;;;1.20;0.83;;;18.60;45.70;;;;;;5033646;28;20428;-61
2022/01/15 00:22:13;;;;;;;2.00;1.10;;;18.60;45.90;;;;;;5033340;28;20420;-60
2022/01/15 00:24:39;;;;;;;1.13;0.70;;;18.60;45.10;;;;;;5033662;28;20897;-65
2022/01/15 00:27:06;;;;;;;1.87;0.90;;;18.60;44.90;;;;;;5033273;28;20428;-64
2022/01/15 00:29:32;;;;;;;1.30;0.90;;;18.60;45.10;;;;;;5033611;28;20486;-63
2022/01/15 00:31:59;;;;;;;1.73;1.00;;;18.60;46.10;;;;;;5033036;28;20456;-62
2022/01/15 00:34:25;;;;;;;1.47;0.87;;;18.60;45.30;;;;;;5033483;28;20413;-63
2022/01/15 00:36:51;;;;;;;1.60;0.90;;;18.60;45.80;;;;;;5033397;28;20750;-63
2022/01/15 00:39:17;;;;;;;1.43;0.90;;;18.60;45.70;;;;;;5032835;28;20417;-65
2022/01/15 00:41:42;;;;;;;1.83;1.03;;;18.60;45.60;;;;;;5032888;28;20181;-65
2022/01/15 00:44:08;;;;;;;1.30;0.80;;;18.60;45.10;;;;;;5033265;28;20178;-64
2022/01/15 00:46:34;;;;;;;1.50;0.80;;;18.60;45.30;;;;;;5033172;28;20235;-61
2022/01/15 00:48:59;;;;;;;1.30;0.80;;;18.60;45.50;;;;;;5033114;28;20653;-63
2022/01/15 00:51:25;;;;;;;1.20;0.80;;;18.60;45.50;;;;;;5032295;28;20205;-65
2022/01/15 00:53:51;;;;;;;1.30;0.87;;;18.60;45.30;;;;;;5032984;28;20178;-63
2022/01/15 00:56:17;;;;;;;1.60;1.00;;;18.60;45.40;;;;;;5033030;28;20412;-61
2022/01/15 00:58:42;;;;;;;1.50;0.90;;;18.60;45.40;;;;;;5033100;28;20166;-67
2022/01/15 01:01:08;;;;;;;1.40;0.80;;;18.60;45.60;;;;;;5032402;28;20650;-62
2022/01/15 01:03:34;;;;;;;1.67;1.10;;;18.60;45.70;;;;;;5032530;28;20177;-63
2022/01/15 01:05:59;;;;;;;1.20;0.80;;;18.60;45.70;;;;;;5032887;28;20575;-63
2022/01/15 01:08:25;;;;;;;1.40;1.00;;;18.60;45.20;;;;;;5032799;28;20185;-64
2022/01/15 01:10:57;;;;;;;1.30;0.90;;;18.60;45.50;;;;;;5032678;28;20709;-64
2022/01/15 01:13:40;;;;;;;1.30;0.90;;;18.60;45.20;;;;;;5032580;28;20252;-65
2022/01/15 01:24:20;;;;;;;1.60;1.10;;;18.60;45.40;;;;;;5034156;28;20471;-62
2022/01/15 01:29:32;;;;;;;1.53;1.00;;;18.60;45.10;;;;;;5033277;28;20408;-64
2022/01/15 01:34:26;;;;;;;3.73;1.00;;;18.60;45.50;;;;;;5033769;28;20404;-64
2022/01/15 01:37:14;;;;;;;1.60;0.80;;;18.60;45.60;;;;;;5032306;28;20170;-65
2022/01/15 01:40:06;;;;;;;1.30;0.90;;;18.60;45.00;;;;;;5031997;28;20463;-64
2022/01/15 01:42:43;;;;;;;2.90;1.00;;;18.60;44.70;;;;;;5033250;28;20408;-64
2022/01/15 01:45:13;;;;;;;1.20;0.70;;;18.60;45.30;;;;;;5032081;28;20416;-61
2022/01/15 01:47:41;;;;;;;1.27;0.80;;;18.60;45.70;;;;;;5032265;28;20499;-63
2022/01/15 01:50:20;;;;;;;1.53;1.00;;;18.60;45.40;;;;;;5031919;28;20436;-66
2022/01/15 01:52:48;;;;;;;1.20;0.80;;;18.60;45.70;;;;;;5031337;28;20464;-65
2022/01/15 01:55:16;;;;;;;1.50;0.87;;;18.60;45.50;;;;;;5031957;28;20417;-65
2022/01/15 01:57:43;;;;;;;1.30;0.90;;;18.60;45.50;;;;;;5031888;28;20435;-63
2022/01/15 02:00:12;;;;;;;1.73;1.00;;;18.60;45.40;;;;;;5031724;28;20774;-63
2022/01/15 02:02:38;;;;;;;1.73;0.90;;;18.60;45.60;;;;;;5031463;28;20416;-66
2022/01/15 02:05:04;;;;;;;3.63;0.90;;;18.60;46.00;;;;;;5031367;28;20412;-64
2022/01/15 02:07:30;;;;;;;1.97;1.20;;;18.60;46.40;;;;;;5031537;28;20173;-63
2022/01/15 02:09:57;;;;;;;4.47;1.20;;;18.60;47.00;;;;;;5031497;28;20967;-65
2022/01/15 02:12:23;;;;;;;1.90;0.87;;;18.60;46.40;;;;;;5031342;28;20201;-63
2022/01/15 02:14:50;;;;;;;2.67;1.00;;;18.60;46.60;;;;;;5031625;28;20439;-63
2022/01/15 02:17:18;;;;;;;2.10;1.00;;;18.60;46.80;;;;;;5031382;28;20181;-61
2022/01/15 02:25:24;;;;;;;1.93;1.13;;;18.70;47.20;;;;;;5033226;28;20903;-63
2022/01/15 02:27:49;;;;;;;1.70;0.83;;;18.70;46.90;;;;;;5031597;28;20421;-62
2022/01/15 02:30:15;;;;;;;1.20;0.80;;;18.70;46.90;;;;;;5030907;28;20232;-60
2022/01/15 02:32:41;;;;;;;5.73;1.00;;;18.60;46.60;;;;;;5031030;28;20699;-63
2022/01/15 02:35:07;;;;;;;3.00;1.30;;;18.70;46.90;;;;;;5031423;28;20169;-62
2022/01/15 02:37:32;;;;;;;1.70;0.70;;;18.70;47.30;;;;;;5033982;28;20575;-65
2022/01/15 02:39:58;;;;;;;3.00;1.20;;;18.70;46.90;;;;;;5035215;28;20940;-64
2022/01/15 02:42:28;;;;;;;2.53;1.10;;;18.70;47.30;;;;;;5034923;28;20176;-60
2022/01/15 02:44:59;;;;;;;2.03;1.10;;;18.70;47.50;;;;;;5035423;28;20514;-64
2022/01/15 02:50:10;;;;;;;4.40;1.30;;;18.70;48.40;;;;;;5034074;28;20391;-79
2022/01/15 02:52:35;;;;;;;1.67;1.03;;;18.70;45.30;;;;;;5034873;28;20456;-78
2022/01/15 02:55:01;;;;;;;1.77;1.40;;;18.70;45.30;;;;;;5033981;28;20420;-79
2022/01/15 02:57:26;;;;;;;8.73;1.20;;;18.60;45.10;;;;;;5035228;28;20189;-78
2022/01/15 02:59:52;;;;;;;8.20;1.37;;;18.60;44.50;;;;;;5033811;28;20178;-78
2022/01/15 03:02:18;;;;;;;2.73;1.17;;;18.60;44.80;;;;;;5034808;28;20211;-79
2022/01/15 03:04:43;;;;;;;10.63;1.43;;;18.60;44.00;;;;;;5035099;28;20180;-78
2022/01/15 03:07:09;;;;;;;3.57;1.17;;;18.60;44.00;;;;;;5034603;28;20854;-78
2022/01/15 03:09:34;;;;;;;1.97;1.20;;;18.50;44.40;;;;;;5033383;28;20180;-78
2022/01/15 03:12:02;;;;;;;2.07;1.27;;;18.50;43.50;;;;;;5034397;28;20230;-79
2022/01/15 03:14:31;;;;;;;1.47;1.00;;;18.50;44.20;;;;;;5034803;28;20216;-78
2022/01/15 03:16:56;;;;;;;3.20;1.20;;;18.50;44.00;;;;;;5034687;28;20440;-78
2022/01/15 03:19:22;;;;;;;2.00;1.40;;;18.50;43.60;;;;;;5033314;28;20412;-79
2022/01/15 03:21:48;;;;;;;2.10;1.17;;;18.50;43.30;;;;;;5034368;28;20243;-77
2022/01/15 03:24:13;;;;;;;1.40;1.10;;;18.50;43.50;;;;;;5034596;28;20553;-77
2022/01/15 03:26:39;;;;;;;1.83;1.20;;;18.50;43.90;;;;;;5034554;28;20228;-77
2022/01/15 03:29:04;;;;;;;1.80;1.00;;;18.50;44.40;;;;;;5034325;28;20525;-78
2022/01/15 03:31:30;;;;;;;2.10;1.00;;;18.50;44.20;;;;;;5034090;28;20174;-77
2022/01/15 03:33:55;;;;;;;1.53;0.97;;;18.40;43.40;;;;;;5034276;28;20893;-77
2022/01/15 03:36:21;;;;;;;1.60;1.03;;;18.50;44.20;;;;;;5034101;28;20186;-77
2022/01/15 03:38:47;;;;;;;3.67;1.13;;;18.40;44.10;;;;;;5034200;28;20253;-77
2022/01/15 03:41:12;;;;;;;2.27;1.20;;;18.40;43.60;;;;;;5033744;28;20664;-77
2022/01/15 03:43:38;;;;;;;2.00;1.10;;;18.40;43.90;;;;;;5032844;28;20261;-77
2022/01/15 03:46:03;;;;;;;2.60;1.03;;;18.40;44.00;;;;;;5033882;28;20209;-78
2022/01/15 03:48:29;;;;;;;1.37;0.90;;;18.40;43.50;;;;;;5033648;28;20623;-78
2022/01/15 03:50:55;;;;;;;1.67;1.00;;;18.40;43.30;;;;;;5033122;28;20170;-78
2022/01/15 03:53:22;;;;;;;1.77;0.97;;;18.40;43.50;;;;;;5033817;28;20475;-78
2022/01/15 03:55:48;;;;;;;2.00;1.10;;;18.40;43.70;;;;;;5033865;28;20166;-77
2022/01/15 03:58:15;;;;;;;2.93;1.13;;;18.40;43.30;;;;;;5033903;28;20405;-77
2022/01/15 04:00:40;;;;;;;2.80;1.20;;;18.40;44.00;;;;;;5033841;28;20428;-77
2022/01/15 04:03:06;;;;;;;1.40;0.90;;;18.40;43.70;;;;;;5033378;28;20475;-78
2022/01/15 04:05:32;;;;;;;1.40;0.90;;;18.40;43.30;;;;;;5033854;28;20197;-78
2022/01/15 04:07:58;;;;;;;1.70;1.30;;;18.40;43.10;;;;;;5033826;28;20177;-77
2022/01/15 04:10:23;;;;;;;1.67;1.23;;;18.40;43.50;;;;;;5033594;28;20220;-78
2022/01/15 04:12:49;;;;;;;1.77;1.00;;;18.40;43.10;;;;;;5033250;28;20208;-78
2022/01/15 04:15:16;;;;;;;1.87;1.00;;;18.40;43.20;;;;;;5033571;28;20170;-77
2022/01/15 04:17:44;;;;;;;1.83;1.20;;;18.40;43.30;;;;;;5033537;28;20239;-78
2022/01/15 04:20:10;;;;;;;1.70;1.00;;;18.40;42.90;;;;;;5033259;28;20407;-77
2022/01/15 04:22:36;;;;;;;1.80;1.20;;;18.40;43.30;;;;;;5031742;28;20955;-77
2022/01/15 04:25:03;;;;;;;2.00;1.20;;;18.40;42.90;;;;;;5033261;28;20491;-78
2022/01/15 04:27:28;;;;;;;1.70;1.10;;;18.40;43.50;;;;;;5033150;28;20226;-77
2022/01/15 04:29:56;;;;;;;1.30;0.80;;;18.40;43.50;;;;;;5033131;28;20443;-77
2022/01/15 04:32:21;;;;;;;1.73;1.20;;;18.40;43.70;;;;;;5032771;28;20259;-77
2022/01/15 04:34:48;;;;;;;2.00;1.20;;;18.40;43.50;;;;;;5032986;28;20412;-78
2022/01/15 04:37:18;;;;;;;1.50;1.10;;;18.40;44.20;;;;;;5033082;28;20186;-79
2022/01/15 04:39:44;;;;;;;1.77;1.20;;;18.30;43.60;;;;;;5033230;28;20401;-77
2022/01/15 04:42:10;;;;;;;1.90;1.40;;;18.30;43.30;;;;;;5032688;28;20467;-78
2022/01/15 04:44:36;;;;;;;2.10;1.50;;;18.30;42.80;;;;;;5033215;28;20170;-77
2022/01/15 04:47:03;;;;;;;3.00;2.10;;;18.30;44.50;;;;;;5032878;28;20820;-77
2022/01/15 04:49:29;;;;;;;2.07;1.13;;;18.40;43.30;;;;;;5031652;28;20178;-78
2022/01/15 04:51:55;;;;;;;10.53;1.67;;;;;;;;;;5032379;28;20948;-78
2022/01/15 04:54:21;;;;;;;2.40;1.33;;;18.40;43.70;;;;;;5032923;28;20397;-79
2022/01/15 04:56:47;;;;;;;2.13;1.33;;;18.40;43.00;;;;;;5032850;28;20428;-79
2022/01/15 04:59:12;;;;;;;1.93;1.30;;;18.40;42.80;;;;;;5032808;28;20657;-77
2022/01/15 05:01:38;;;;;;;2.60;1.43;;;18.40;43.10;;;;;;5031059;28;20200;-78
2022/01/15 05:04:04;;;;;;;2.10;1.37;;;18.40;42.50;;;;;;5032695;28;20659;-78
2022/01/15 05:06:29;;;;;;;1.80;1.30;;;18.40;42.30;;;;;;5031366;28;20198;-78
2022/01/15 05:09:04;;;;;;;1.93;1.30;;;18.40;42.20;;;;;;5032631;28;20419;-78
2022/01/15 05:11:43;;;;;;;1.97;1.20;;;18.40;42.30;;;;;;5032165;28;20223;-78
2022/01/15 05:14:10;;;;;;;1.87;1.20;;;18.40;43.00;;;;;;5032676;28;20961;-78
2022/01/15 05:16:36;;;;;;;1.63;1.10;;;18.30;42.80;;;;;;5032567;28;20424;-77
2022/01/15 05:19:02;;;;;;;2.50;1.13;;;18.30;43.10;;;;;;5032309;28;20470;-77
2022/01/15 05:21:27;;;;;;;1.63;1.10;;;18.30;42.80;;;;;;5031934;28;20409;-78
2022/01/15 05:23:53;;;;;;;1.63;1.23;;;18.30;42.60;;;;;;5032257;28;20404;-78
2022/01/15 05:26:18;;;;;;;2.53;1.30;;;18.30;42.80;;;;;;5032340;28;20186;-77
2022/01/15 05:28:44;;;;;;;2.50;1.37;;;18.30;42.60;;;;;;5032392;28;20201;-78
2022/01/15 05:31:09;;;;;;;2.07;1.20;;;18.30;43.30;;;;;;5031844;28;20166;-78
2022/01/15 05:33:35;;;;;;;2.20;1.10;;;18.30;42.70;;;;;;5032315;28;20201;-78
2022/01/15 05:36:01;;;;;;;3.90;1.60;;;18.30;43.30;;;;;;5032293;28;20197;-80
2022/01/15 05:38:27;;;;;;;2.10;1.10;;;18.30;43.60;;;;;;5032791;28;20184;-80
2022/01/15 05:40:52;;;;;;;2.03;1.13;;;18.30;42.50;;;;;;5031356;28;20499;-79
2022/01/15 05:43:18;;;;;;;1.30;0.90;;;18.30;42.90;;;;;;5032068;28;20253;-79
2022/01/15 05:45:45;;;;;;;1.70;1.20;;;18.30;42.80;;;;;;5031897;28;20219;-79
2022/01/15 05:48:10;;;;;;;2.20;1.13;;;18.30;43.10;;;;;;5032089;28;20545;-79
2022/01/15 05:50:36;;;;;;;2.60;1.47;;;18.30;42.60;;;;;;5032024;28;20407;-80
2022/01/15 05:53:02;;;;;;;2.37;1.70;;;18.30;43.20;;;;;;5030877;28;20692;-80
2022/01/15 05:55:28;;;;;;;1.80;1.20;;;18.30;43.10;;;;;;5030627;28;20177;-78
2022/01/15 05:57:53;;;;;;;1.83;1.20;;;18.30;44.20;;;;;;5031780;28;20292;-78
2022/01/15 06:00:19;;;;;;;3.10;1.20;;;18.20;43.00;;;;;;5031442;28;20576;-78
2022/01/15 06:02:44;;;;;;;2.77;1.00;;;18.30;43.30;;;;;;5031455;28;20174;-78
2022/01/15 06:05:10;;;;;;;2.40;1.40;;;18.30;42.80;;;;;;5031765;28;20709;-79
2022/01/15 06:07:36;;;;;;;1.97;1.20;;;18.20;42.70;;;;;;5030273;28;20604;-77
2022/01/15 06:10:03;;;;;;;1.60;1.20;;;18.20;42.70;;;;;;5029347;28;20420;-79
2022/01/15 06:12:31;;;;;;;2.10;1.47;;;18.20;42.60;;;;;;5026391;28;20742;-79
2022/01/15 06:14:57;;;;;;;2.20;1.37;;;18.20;44.20;;;;;;5031548;28;20776;-79
2022/01/15 06:17:23;;;;;;;1.83;1.30;;;18.30;43.90;;;;;;5031326;28;20993;-77
2022/01/15 06:19:49;;;;;;;2.37;1.60;;;18.30;43.50;;;;;;5016910;28;20410;-79
2022/01/15 06:22:14;;;;;;;2.97;1.40;;;18.30;44.10;;;;;;5011307;28;20254;-78
2022/01/15 06:24:40;;;;;;;2.43;1.53;;;18.30;43.90;;;;;;5016151;28;20170;-79
2022/01/15 06:27:08;;;;;;;2.00;1.07;;;18.30;43.00;;;;;;5031249;28;20223;-78
2022/01/15 06:29:34;;;;;;;2.70;1.60;;;18.30;43.10;;;;;;5019347;28;20171;-78
2022/01/15 06:31:59;;;;;;;2.50;1.63;;;18.20;42.50;;;;;;5010934;28;20457;-78
2022/01/15 06:34:25;;;;;;;2.13;1.37;;;18.20;42.20;;;;;;5011385;28;20414;-78
2022/01/15 06:36:50;;;;;;;1.93;1.40;;;18.20;42.60;;;;;;5011475;28;20689;-78
2022/01/15 06:39:16;;;;;;;1.97;1.23;;;18.20;42.90;;;;;;5011307;28;20622;-77
2022/01/15 06:41:42;;;;;;;2.37;1.57;;;18.20;42.60;;;;;;5027158;28;20178;-77
2022/01/15 06:44:07;;;;;;;1.73;1.00;;;18.20;42.10;;;;;;5031250;28;20178;-78
2022/01/15 06:46:33;;;;;;;1.60;1.20;;;18.20;42.20;;;;;;5018224;28;20209;-77
2022/01/15 06:48:59;;;;;;;1.70;1.27;;;18.20;43.20;;;;;;5009713;28;20181;-78
2022/01/15 06:51:25;;;;;;;1.83;1.23;;;18.20;42.80;;;;;;5010777;28;20638;-77
2022/01/15 06:53:50;;;;;;;2.20;1.40;;;18.20;43.20;;;;;;5010039;28;20182;-77
2022/01/15 06:56:16;;;;;;;1.80;1.10;;;18.20;42.50;;;;;;5011132;28;20430;-78
2022/01/15 06:58:42;;;;;;;1.73;1.13;;;18.20;42.30;;;;;;5010145;28;20167;-78
2022/01/15 07:01:08;;;;;;;1.50;1.20;;;18.20;42.50;;;;;;5010796;28;20634;-78
2022/01/15 07:03:34;;;;;;;1.60;1.00;;;18.30;43.00;;;;;;5011350;28;20467;-79
2022/01/15 07:05:59;;;;;;;1.87;1.10;;;18.20;42.70;;;;;;5011358;28;20198;-78
2022/01/15 07:08:25;;;;;;;1.90;1.40;;;18.20;42.50;;;;;;5011344;28;20167;-78
2022/01/15 07:10:50;;;;;;;1.80;1.10;;;18.20;42.70;;;;;;5009802;28;20178;-78
2022/01/15 07:13:19;;;;;;;1.40;0.97;;;18.30;42.80;;;;;;5010773;28;20217;-78
2022/01/15 07:15:48;;;;;;;1.70;1.20;;;18.30;42.30;;;;;;5009938;28;20174;-78
2022/01/15 07:18:14;;;;;;;2.63;1.17;;;18.20;42.90;;;;;;5011231;28;20406;-78
2022/01/15 07:20:40;;;;;;;1.97;1.23;;;18.30;43.50;;;;;;5009736;28;20940;-79
2022/01/15 07:23:05;;;;;;;1.90;1.30;;;18.30;42.90;;;;;;5011262;28;20405;-77
2022/01/15 07:25:31;;;;;;;4.60;1.50;;;18.30;43.60;;;;;;5014973;28;20325;-78
2022/01/15 07:27:57;;;;;;;5.53;1.60;;;18.30;43.40;;;;;;5031378;28;20232;-78
2022/01/15 07:30:23;;;;;;;2.20;1.60;;;18.40;44.00;;;;;;5028455;28;20174;-78
2022/01/15 07:32:49;;;;;;;2.30;1.50;;;18.40;42.80;;;;;;5034173;28;20339;-79
2022/01/15 07:35:15;;;;;;;2.20;1.30;;;18.30;44.30;;;;;;5029511;28;20495;-78
2022/01/15 07:37:41;;;;;;;2.27;1.70;;;18.40;43.90;;;;;;5029544;28;20197;-77
2022/01/15 07:40:07;;;;;;;3.00;1.93;;;18.30;43.10;;;;;;5032489;28;20178;-77
2022/01/15 07:42:38;;;;;;;2.00;1.30;;;18.40;44.30;;;;;;5034119;28;20929;-78
2022/01/15 07:45:09;;;;;;;2.43;1.40;;;18.40;43.60;;;;;;5034072;28;20409;-78
2022/01/15 07:47:36;;;;;;;2.80;1.90;;;18.40;43.70;;;;;;5019700;28;20976;-78
2022/01/15 07:50:08;;;;;;;2.27;1.40;;;18.40;43.70;;;;;;5014400;28;20417;-78
2022/01/15 07:52:34;;;;;;;1.97;1.27;;;18.40;43.80;;;;;;5013979;28;20479;-79
2022/01/15 07:55:00;;;;;;;2.27;1.40;;;18.40;44.00;;;;;;5016396;28;20484;-80
2022/01/15 07:57:26;;;;;;;11.80;1.70;;;18.40;43.50;;;;;;5016055;28;20179;-80
2022/01/15 07:59:52;;;;;;;3.20;1.57;;;18.40;43.20;;;;;;5016472;28;20976;-79
2022/01/15 08:02:18;;;;;;;3.97;2.33;;;18.40;43.60;;;;;;5014598;28;20496;-79
2022/01/15 08:04:44;;;;;;;3.60;1.70;;;18.40;44.00;;;;;;5014113;28;20408;-78
2022/01/15 08:07:09;;;;;;;2.90;1.83;;;18.40;43.10;;;;;;5012916;28;20543;-78
2022/01/15 08:09:36;;;;;;;2.87;1.47;;;18.40;43.60;;;;;;5012783;28;20666;-77
2022/01/15 08:12:02;;;;;;;2.33;1.43;;;18.40;43.70;;;;;;5013589;28;20198;-79
2022/01/15 08:14:28;;;;;;;2.97;1.63;;;18.40;43.20;;;;;;5014094;28;20402;-78
2022/01/15 08:16:54;;;;;;;2.00;1.50;;;18.40;42.80;;;;;;5013914;28;20440;-79
2022/01/15 08:19:19;;;;;;;1.93;1.33;;;18.40;43.20;;;;;;5013980;28;20171;-79
2022/01/15 08:21:45;;;;;;;2.63;1.70;;;18.40;43.00;;;;;;5012506;28;20174;-78
2022/01/15 08:24:10;;;;;;;2.90;1.43;;;18.40;42.70;;;;;;5012486;28;20185;-78
2022/01/15 08:26:36;;;;;;;2.27;1.30;;;18.40;42.80;;;;;;5013833;28;20194;-78
2022/01/15 08:29:02;;;;;;;3.00;2.00;;;18.30;43.20;;;;;;5013736;28;20182;-79
2022/01/15 08:31:28;;;;;;;1.70;1.37;;;18.30;43.30;;;;;;5012175;28;20244;-79
2022/01/15 08:33:54;;;;;;;2.07;1.57;;;18.40;43.50;;;;;;5012605;28;20889;-78
2022/01/15 08:36:20;;;;;;;2.00;1.50;;;18.40;43.60;;;;;;5013125;28;20194;-79
2022/01/15 08:38:46;;;;;;;2.37;1.63;;;18.40;43.30;;;;;;5013677;28;20666;-79
2022/01/15 08:41:13;;;;;;;3.27;1.20;;;18.40;43.20;;;;;;5013212;28;20401;-79
2022/01/15 08:43:39;;;;;;;2.20;1.13;;;18.40;43.30;;;;;;5012248;28;20186;-79
2022/01/15 08:46:05;;;;;;;5.70;1.70;;;18.40;43.10;;;;;;5013147;28;20548;-78
2022/01/15 08:48:30;;;;;;;3.87;1.77;;;18.40;44.00;;;;;;5013483;28;20540;-79
2022/01/15 08:50:56;;;;;;;2.30;1.63;;;18.30;43.60;;;;;;5011537;28;20189;-78
2022/01/15 08:53:22;;;;;;;2.90;1.90;;;18.40;44.00;;;;;;5012118;28;20199;-77
2022/01/15 08:55:48;;;;;;;2.77;1.70;;;18.50;43.60;;;;;;5013141;28;20167;-78
2022/01/15 08:58:14;;;;;;;1.63;1.17;;;18.50;43.70;;;;;;5013144;28;20171;-77
2022/01/15 09:00:40;;;;;;;2.03;1.20;;;18.60;43.40;;;;;;5013029;28;20493;-77
2022/01/15 09:03:07;;;;;;;2.90;1.70;;;18.50;43.30;;;;;;5012632;28;20669;-77
2022/01/15 09:05:36;;;;;;;2.93;1.30;;;18.60;43.50;;;;;;5013036;28;20413;-77
2022/01/15 09:08:04;;;;;;;4.37;1.37;;;18.60;42.80;;;;;;5012913;28;20405;-76
2022/01/15 09:10:30;;;;;;;1.97;1.57;;;18.60;43.00;;;;;;5012812;28;20431;-77
2022/01/15 09:12:55;;;;;;;2.73;2.13;;;18.70;43.20;;;;;;5012576;28;20445;-77
2022/01/15 09:15:21;;;;;;;3.23;1.80;;;18.70;44.40;;;;;;5013201;28;20405;-79
2022/01/15 09:17:47;;;;;;;2.70;2.20;;;18.80;44.80;;;;;;5013234;28;20705;-78
2022/01/15 09:20:13;;;;;;;5.70;3.60;;;18.70;45.20;;;;;;5012792;28;20166;-77
2022/01/15 09:22:39;;;;;;;5.83;3.00;;;18.90;42.10;;;;;;5012379;28;20174;-78
2022/01/15 09:25:06;;;;;;;6.43;3.50;;;18.90;41.90;;;;;;5011424;28;20465;-78
2022/01/15 09:30:16;;;;;;;6.70;3.63;;;18.90;41.30;;;;;;5012387;28;20781;-78
2022/01/15 09:32:53;;;;;;;7.07;2.60;;;18.90;40.60;;;;;;5010663;28;20453;-78
2022/01/15 09:35:27;;;;;;;3.90;2.57;;;18.90;40.80;;;;;;5012374;28;20193;-78
2022/01/15 09:37:54;;;;;;;4.00;2.47;;;18.90;40.80;;;;;;5012368;28;20461;-77
2022/01/15 09:40:22;;;;;;;6.60;2.90;;;18.90;40.80;;;;;;5011050;28;20921;-77
2022/01/15 09:42:49;;;;;;;8.33;2.13;;;19.00;41.10;;;;;;5017452;28;20765;-79
2022/01/15 09:45:16;;;;;;;8.13;2.20;;;18.90;40.30;;;;;;5032885;28;20419;-79
2022/01/15 09:47:42;;;;;;;7.10;2.27;;;18.90;42.00;;;;;;5032150;28;20799;-80
2022/01/15 09:50:14;;;;;;;4.60;3.00;;;18.90;41.00;;;;;;5032759;28;20459;-81
2022/01/15 09:52:40;;;;;;;3.60;2.30;;;18.90;40.30;;;;;;5032199;28;20455;-78
2022/01/15 09:55:09;;;;;;;3.07;2.37;;;18.90;40.50;;;;;;5033555;28;20435;-78
2022/01/15 09:57:36;;;;;;;6.33;3.23;;;18.90;40.30;;;;;;5033368;28;20217;-79
2022/01/15 10:00:07;;;;;;;4.50;2.43;;;19.00;40.00;;;;;;5031781;28;21002;-79
2022/01/15 10:02:33;;;;;;;6.60;3.53;;;19.00;39.70;;;;;;5032199;28;20530;-79
2022/01/15 10:04:59;;;;;;;4.13;2.33;;;18.90;39.80;;;;;;5032660;28;20510;-79
2022/01/15 10:07:27;;;;;;;4.80;2.30;;;19.00;39.50;;;;;;5032423;28;20736;-79
2022/01/15 10:09:55;;;;;;;4.77;2.70;;;19.00;39.80;;;;;;5032159;28;20170;-79
2022/01/15 10:12:35;;;;;;;4.73;2.80;;;19.10;39.80;;;;;;5031728;28;20498;-79
2022/01/15 10:15:04;;;;;;;3.40;2.10;;;19.00;40.00;;;;;;5031388;28;20407;-80
2022/01/15 10:17:33;;;;;;;3.43;2.00;;;19.20;40.20;;;;;;5031804;28;20416;-79
2022/01/15 10:20:00;;;;;;;4.43;3.00;;;19.20;39.60;;;;;;5031075;28;20412;-80
2022/01/15 10:22:28;;;;;;;4.17;2.67;;;19.20;40.00;;;;;;5029829;28;20788;-79
2022/01/15 10:25:03;;;;;;;3.97;2.90;;;19.20;39.40;;;;;;5031385;28;20417;-80
2022/01/15 10:27:38;;;;;;;6.03;3.00;;;19.20;39.20;;;;;;5032042;28;20444;-80
2022/01/15 10:30:23;;;;;;;3.60;2.40;;;19.20;39.40;;;;;;5031769;28;20420;-81
2022/01/15 10:32:57;;;;;;;12.13;3.27;;;19.30;39.30;;;;;;5032652;28;21002;-80
2022/01/15 10:35:24;;;;;;;6.90;3.53;;;19.30;39.50;;;;;;5031571;28;20408;-80
2022/01/15 10:37:53;;;;;;;5.70;3.07;;;19.20;39.70;;;;;;5032237;28;20421;-80
2022/01/15 10:40:22;;;;;;;5.27;2.43;;;19.40;39.70;;;;;;5032172;28;20907;-80
2022/01/15 10:43:00;;;;;;;4.93;2.13;;;19.40;39.90;;;;;;5030677;28;20777;-80
2022/01/15 10:45:31;;;;;;;6.93;3.47;;;19.40;39.70;;;;;;5030579;28;20507;-80
2022/01/15 10:48:01;;;;;;;2.50;2.00;;;19.40;39.70;;;;;;5032052;28;20994;-80
2022/01/15 10:50:33;;;;;;;3.13;2.10;;;19.40;39.60;;;;;;5032150;28;20475;-80
2022/01/15 10:53:11;;;;;;;6.43;2.87;;;19.50;39.70;;;;;;5030387;28;20495;-80
2022/01/15 10:55:38;;;;;;;3.60;2.37;;;19.50;39.70;;;;;;5031084;28;20409;-83
2022/01/15 10:58:06;;;;;;;3.23;2.43;;;19.50;39.80;;;;;;5032161;28;20413;-82
2022/01/15 11:00:50;;;;;;;3.73;2.67;;;19.60;39.50;;;;;;5036730;28;20434;-83
2022/01/15 11:03:17;;;;;;;5.30;3.60;;;19.60;42.40;;;;;;5035640;28;20427;-80
2022/01/15 11:05:51;;;;;;;6.57;3.90;;;19.90;45.10;;;;;;5034976;28;20827;-78
2022/01/15 11:08:22;;;;;;;4.43;3.17;;;19.70;45.30;;;;;;5034294;28;20414;-80
2022/01/15 11:10:54;;;;;;;6.97;3.80;;;19.80;45.60;;;;;;5033545;28;20421;-78
2022/01/15 11:13:30;;;;;;;4.37;3.43;;;19.80;45.70;;;;;;5034733;28;20463;-79
2022/01/15 11:16:00;;;;;;;5.47;3.17;;;19.80;45.40;;;;;;5033811;28;20486;-81
2022/01/15 11:18:37;;;;;;;4.67;2.70;;;19.90;45.50;;;;;;5035132;28;20416;-81
2022/01/15 11:21:06;;;;;;;3.80;2.40;;;19.90;42.80;;;;;;5036927;28;20427;-82
2022/01/15 11:23:33;;;;;;;3.43;2.00;;;20.00;42.10;;;;;;5035965;28;20509;-81
2022/01/15 11:26:02;;;;;;;4.73;2.77;;;19.90;42.00;;;;;;5036896;28;20451;-81
2022/01/15 11:28:30;;;;;;;3.10;1.87;;;19.90;41.40;;;;;;5036673;28;20423;-81
2022/01/15 11:31:04;;;;;;;3.20;2.40;;;20.10;41.30;;;;;;5034048;28;20957;-79
2022/01/15 11:33:32;;;;;;;4.43;2.80;;;20.00;41.20;;;;;;5036139;28;20462;-81
2022/01/15 11:35:58;;;;;;;7.20;3.37;;;20.00;40.80;;;;;;5037274;28;20792;-82
2022/01/15 11:38:50;;;;;;;4.90;2.10;;;20.00;40.60;;;;;;5038434;28;20407;-82
2022/01/15 11:41:25;;;;;;;3.50;2.63;;;19.90;40.40;;;;;;5029137;28;20871;-81
2022/01/15 11:43:51;;;;;;;3.23;1.73;;;20.00;40.70;;;;;;5031584;28;20493;-81
2022/01/15 11:46:38;;;;;;;4.80;2.77;;;20.10;40.70;;;;;;5036662;28;20464;-81
2022/01/15 11:49:32;;;;;;;3.87;2.37;;;20.10;40.60;;;;;;5036303;28;20424;-82
2022/01/15 11:52:08;;;;;;;3.63;3.10;;;20.10;40.70;;;;;;5036986;28;20561;-80
2022/01/15 11:54:34;;;;;;;5.43;2.97;;;20.10;40.80;;;;;;5035241;28;20420;-80
2022/01/15 11:57:02;;;;;;;3.90;2.97;;;20.10;40.10;;;;;;5035897;28;20822;-81
2022/01/15 11:59:27;;;;;;;5.00;3.30;;;20.10;40.30;;;;;;5035920;28;20436;-81
2022/01/15 12:01:55;;;;;;;3.73;2.70;;;20.10;40.80;;;;;;5031548;28;20421;-78
2022/01/15 12:04:38;;;;;;;3.13;2.30;;;20.10;40.60;;;;;;5034748;28;20201;-78
2022/01/15 12:07:06;;;;;;;3.97;2.93;;;20.10;40.10;;;;;;5033886;28;20475;-79
2022/01/15 12:09:40;;;;;;;4.37;2.97;;;20.10;40.70;;;;;;5031947;28;20428;-78
2022/01/15 12:12:26;;;;;;;4.27;2.87;;;20.10;40.10;;;;;;5033017;28;20498;-79
2022/01/15 12:15:05;;;;;;;4.17;2.90;;;20.10;40.40;;;;;;5032617;28;20412;-78
2022/01/15 12:18:18;;;;;;;5.50;3.00;;;20.10;40.70;;;;;;5032497;28;20468;-79
2022/01/15 12:20:45;;;;;;;5.70;3.23;;;20.10;40.60;;;;;;4998502;28;20517;-79
2022/01/15 12:23:17;;;;;;;6.60;3.70;;;20.10;40.20;;;;;;5027004;28;20505;-80
2022/01/15 12:25:44;;;;;;;3.80;2.77;;;20.10;40.30;;;;;;5033586;28;20523;-78
2022/01/15 12:28:13;;;;;;;5.77;3.70;;;20.10;39.80;;;;;;5026911;28;20425;-79
2022/01/15 12:30:42;;;;;;;6.40;4.03;;;20.10;40.30;;;;;;5033286;28;20423;-79
2022/01/15 12:33:12;;;;;;;7.47;4.30;;;20.10;43.50;;;;;;5033345;28;20472;-81
2022/01/15 12:35:40;;;;;;;4.23;3.33;;;20.20;40.90;;;;;;5036752;28;20446;-81
2022/01/15 12:38:08;;;;;;;4.90;3.73;;;20.10;40.10;;;;;;5032793;28;20425;-79
2022/01/15 12:40:41;;;;;;;3.13;2.50;;;20.10;40.30;;;;;;5036617;28;20514;-80
2022/01/15 12:43:24;;;;;;;8.10;4.50;;;20.10;40.30;;;;;;5034170;28;20432;-79
2022/01/15 12:45:55;;;;;;;8.07;4.53;;;20.10;40.10;;;;;;5035629;28;20424;-81
2022/01/15 12:48:23;;;;;;;5.80;3.20;;;20.10;39.70;;;;;;5033624;28;20435;-80
2022/01/15 12:50:57;;;;;;;7.17;4.23;;;20.00;39.60;;;;;;5031453;28;20499;-79
2022/01/15 12:53:25;;;;;;;5.07;4.20;;;20.00;39.80;;;;;;5025794;28;20464;-83
2022/01/15 12:55:51;;;;;;;8.27;5.27;;;20.00;39.60;;;;;;5031781;28;20482;-85
2022/01/15 12:58:19;;;;;;;7.70;4.80;;;20.00;40.00;;;;;;5031287;28;20467;-84
2022/01/15 13:00:46;;;;;;;5.97;4.33;;;20.00;40.00;;;;;;5032121;28;20440;-82
2022/01/15 13:03:19;;;;;;;5.43;3.87;;;20.00;39.50;;;;;;5025333;28;20455;-83
2022/01/15 13:05:50;;;;;;;6.60;4.97;;;20.00;39.80;;;;;;5017338;28;20464;-78
2022/01/15 13:08:18;;;;;;;10.83;6.07;;;20.00;39.70;;;;;;5017168;28;20523;-80
2022/01/15 13:10:49;;;;;;;9.90;6.63;;;20.00;40.20;;;;;;5033401;28;20428;-80
2022/01/15 13:13:20;;;;;;;14.93;4.50;;;19.90;39.70;;;;;;5030928;28;20471;-81
2022/01/15 13:15:46;;;;;;;8.13;5.47;;;20.00;39.30;;;;;;5035760;28;20765;-83
2022/01/15 13:18:18;;;;;;;6.07;3.73;;;19.90;39.20;;;;;;5034529;28;20503;-84